createdAt,value
2019-03-24T00:01:25.835Z,32.40
2019-03-24T00:03:56.842Z,32.57
2019-03-24T00:06:27.635Z,31.60
2019-03-24T00:08:58.407Z,34.17
2019-03-24T00:11:29.135Z,35.00
2019-03-24T00:13:59.907Z,34.57
2019-03-24T00:16:30.711Z,31.73
2019-03-24T00:19:01.838Z,32.07
2019-03-24T00:21:32.568Z,32.30
2019-03-24T00:24:03.454Z,33.63
2019-03-24T00:26:35.353Z,34.53
2019-03-24T00:29:06.135Z,32.40
2019-03-24T00:31:36.899Z,34.30
2019-03-24T00:34:07.759Z,33.70
2019-03-24T00:36:38.540Z,32.50
2019-03-24T00:39:09.400Z,33.53
2019-03-24T00:41:40.161Z,32.77
2019-03-24T00:44:10.943Z,33.23
2019-03-24T00:46:41.739Z,32.73
2019-03-24T00:49:12.633Z,33.00
2019-03-24T00:51:44.609Z,33.00
2019-03-24T00:54:15.410Z,33.47
2019-03-24T00:56:46.221Z,34.07
2019-03-24T00:59:16.995Z,33.83
2019-03-24T01:01:48.793Z,33.87
2019-03-24T01:04:19.643Z,33.77
2019-03-24T01:06:50.763Z,33.33
2019-03-24T01:09:21.553Z,32.80
2019-03-24T01:11:52.339Z,33.40
2019-03-24T01:14:23.115Z,34.23
2019-03-24T01:16:53.887Z,33.23
2019-03-24T01:19:24.654Z,33.40
2019-03-24T01:21:55.406Z,32.77
2019-03-24T01:24:26.372Z,33.47
2019-03-24T01:26:57.156Z,34.47
2019-03-24T01:29:28.030Z,35.80
2019-03-24T01:31:58.769Z,34.23
2019-03-24T01:34:29.526Z,34.10
2019-03-24T01:37:00.323Z,33.17
2019-03-24T01:39:31.108Z,33.13
2019-03-24T01:42:01.900Z,33.47
2019-03-24T01:44:32.871Z,32.23
2019-03-24T01:47:03.711Z,33.93
2019-03-24T01:49:34.537Z,34.70
2019-03-24T01:52:05.390Z,34.33
2019-03-24T01:54:36.421Z,35.33
2019-03-24T01:57:07.211Z,32.80
2019-03-24T01:59:37.998Z,33.60
2019-03-24T02:02:08.719Z,33.67
2019-03-24T02:04:39.687Z,34.40
2019-03-24T02:07:10.475Z,33.77
2019-03-24T02:09:41.261Z,34.67
2019-03-24T02:12:11.984Z,34.93
2019-03-24T02:14:42.784Z,33.97
2019-03-24T02:17:13.598Z,33.67
2019-03-24T02:19:44.502Z,33.83
2019-03-24T02:22:15.257Z,32.97
2019-03-24T02:24:46.196Z,33.97
2019-03-24T02:27:17.031Z,33.33
2019-03-24T02:29:47.898Z,32.17
2019-03-24T02:32:18.651Z,33.03
2019-03-24T02:34:49.423Z,32.27
2019-03-24T02:37:20.211Z,34.67
2019-03-24T02:39:50.966Z,34.33
2019-03-24T02:42:21.757Z,33.03
2019-03-24T02:44:52.551Z,34.13
2019-03-24T02:47:23.355Z,35.70
2019-03-24T02:49:54.390Z,33.63
2019-03-24T02:52:25.144Z,34.23
2019-03-24T02:54:55.982Z,35.17
2019-03-24T02:57:26.803Z,33.97
2019-03-24T02:59:57.588Z,33.57
2019-03-24T03:02:28.342Z,33.87
2019-03-24T03:04:59.183Z,34.30
2019-03-24T03:07:29.998Z,34.10
2019-03-24T03:10:00.754Z,32.07
2019-03-24T03:12:33.046Z,33.10
2019-03-24T03:15:03.856Z,32.83
2019-03-24T03:17:34.721Z,35.37
2019-03-24T03:20:07.303Z,32.13
2019-03-24T03:22:38.066Z,33.83
2019-03-24T03:25:10.144Z,33.40
2019-03-24T03:27:40.941Z,32.37
2019-03-24T03:30:11.973Z,33.27
2019-03-24T03:32:42.740Z,33.97
2019-03-24T03:35:13.794Z,32.40
2019-03-24T03:37:44.585Z,31.87
2019-03-24T03:40:15.366Z,31.57
2019-03-24T03:42:46.100Z,32.87
2019-03-24T03:45:24.228Z,30.10
2019-03-24T03:47:55.066Z,30.90
2019-03-24T03:50:26.021Z,30.03
2019-03-24T03:52:56.826Z,29.83
2019-03-24T03:55:27.647Z,29.07
2019-03-24T03:57:58.433Z,29.43
2019-03-24T04:00:36.449Z,30.40
2019-03-24T04:03:07.678Z,29.53
2019-03-24T04:05:38.660Z,28.93
2019-03-24T04:08:09.514Z,28.33
2019-03-24T04:10:40.250Z,29.83
2019-03-24T04:13:11.029Z,28.77
2019-03-24T04:15:41.841Z,29.30
2019-03-24T04:18:12.606Z,27.13
2019-03-24T04:20:44.640Z,29.30
2019-03-24T04:23:15.501Z,27.87
2019-03-24T04:25:46.543Z,25.90
2019-03-24T04:28:17.349Z,28.30
2019-03-24T04:30:48.131Z,28.50
2019-03-24T04:33:18.857Z,26.30
2019-03-24T04:35:49.692Z,27.20
2019-03-24T04:38:20.531Z,28.43
2019-03-24T04:40:51.326Z,27.47
2019-03-24T04:43:22.103Z,27.00
2019-03-24T04:45:52.867Z,25.87
2019-03-24T04:48:23.643Z,27.80
2019-03-24T04:50:54.445Z,28.33
2019-03-24T04:53:25.207Z,27.47
2019-03-24T04:55:56.084Z,27.83
2019-03-24T04:58:27.108Z,25.27
2019-03-24T05:00:58.034Z,25.40
2019-03-24T05:03:28.826Z,23.90
2019-03-24T05:06:00.893Z,24.97
2019-03-24T05:08:31.847Z,23.90
2019-03-24T05:11:02.586Z,23.23
2019-03-24T05:13:33.339Z,19.97
2019-03-24T05:16:04.120Z,20.50
2019-03-24T05:18:34.939Z,20.23
2019-03-24T05:21:06.028Z,21.63
2019-03-24T05:23:37.688Z,17.77
2019-03-24T05:26:08.956Z,17.67
2019-03-24T05:28:39.768Z,17.70
2019-03-24T05:31:10.554Z,17.17
2019-03-24T05:33:41.343Z,16.37
2019-03-24T05:36:12.264Z,18.27
2019-03-24T05:38:43.088Z,16.37
2019-03-24T05:41:13.868Z,15.90
2019-03-24T05:43:45.764Z,14.97
2019-03-24T05:46:16.600Z,15.67
2019-03-24T05:48:47.719Z,15.77
2019-03-24T05:51:18.685Z,15.87
2019-03-24T05:53:49.521Z,14.37
2019-03-24T05:56:20.295Z,14.87
2019-03-24T05:58:51.081Z,16.53
2019-03-24T06:01:21.873Z,16.30
2019-03-24T06:03:52.620Z,16.03
2019-03-24T06:06:23.471Z,16.57
2019-03-24T06:08:54.844Z,17.53
2019-03-24T06:11:25.647Z,16.90
2019-03-24T06:13:56.401Z,17.80
2019-03-24T06:16:27.290Z,16.67
2019-03-24T06:18:58.038Z,16.17
2019-03-24T06:21:29.010Z,15.57
2019-03-24T06:23:59.740Z,16.50
2019-03-24T06:26:30.777Z,15.63
2019-03-24T06:29:01.510Z,14.40
2019-03-24T06:31:32.337Z,15.00
2019-03-24T06:34:03.116Z,13.90
2019-03-24T06:36:33.959Z,14.07
2019-03-24T06:39:05.553Z,13.40
2019-03-24T06:41:36.368Z,14.40
2019-03-24T06:44:07.605Z,12.70
2019-03-24T06:46:39.235Z,12.50
2019-03-24T06:49:10.003Z,13.97
2019-03-24T06:51:40.857Z,13.73
2019-03-24T06:54:11.629Z,12.17
2019-03-24T06:56:42.413Z,12.70
2019-03-24T06:59:13.141Z,12.47
2019-03-24T07:01:43.961Z,12.80
2019-03-24T07:04:14.836Z,12.77
2019-03-24T07:06:45.840Z,13.60
2019-03-24T07:09:16.600Z,12.13
2019-03-24T07:11:47.413Z,12.43
2019-03-24T07:14:18.176Z,11.10
2019-03-24T07:16:48.957Z,11.83
2019-03-24T07:19:19.716Z,11.13
2019-03-24T07:21:50.568Z,10.00
2019-03-24T07:24:21.328Z,11.67
2019-03-24T07:26:52.195Z,12.20
2019-03-24T07:29:22.929Z,10.40
2019-03-24T07:31:53.827Z,10.03
2019-03-24T07:34:24.599Z,11.47
2019-03-24T07:36:55.584Z,11.20
2019-03-24T07:39:26.319Z,12.07
2019-03-24T07:41:57.176Z,10.80
2019-03-24T07:44:28.011Z,12.53
2019-03-24T07:46:58.788Z,10.20
2019-03-24T07:49:29.551Z,10.13
2019-03-24T07:52:00.581Z,11.40
2019-03-24T07:54:31.353Z,10.47
2019-03-24T07:57:02.143Z,11.03
2019-03-24T07:59:32.925Z,9.83
2019-03-24T08:02:03.806Z,10.40
2019-03-24T08:04:34.583Z,11.80
2019-03-24T08:07:05.577Z,10.27
2019-03-24T08:09:37.230Z,10.47
2019-03-24T08:12:09.298Z,11.30
2019-03-24T08:14:40.107Z,11.17
2019-03-24T08:17:10.934Z,10.67
2019-03-24T08:19:41.666Z,10.40
2019-03-24T08:22:12.666Z,9.93
2019-03-24T08:24:43.478Z,11.40
2019-03-24T08:27:14.520Z,10.70
2019-03-24T08:29:45.299Z,10.13
2019-03-24T08:32:16.197Z,10.87
2019-03-24T08:34:48.448Z,9.80
2019-03-24T08:37:19.380Z,10.40
2019-03-24T08:39:50.259Z,10.57
2019-03-24T08:42:21.217Z,10.53
2019-03-24T08:44:52.020Z,10.73
2019-03-24T08:47:22.818Z,11.37
2019-03-24T08:49:53.620Z,10.27
2019-03-24T08:52:24.989Z,9.93
2019-03-24T08:54:55.727Z,11.50
2019-03-24T08:57:26.509Z,10.43
2019-03-24T08:59:57.244Z,11.27
2019-03-24T09:02:28.098Z,11.30
2019-03-24T09:04:58.848Z,11.03
2019-03-24T09:07:29.685Z,10.50
2019-03-24T09:10:02.513Z,10.93
2019-03-24T09:12:33.454Z,10.57
2019-03-24T09:15:04.796Z,10.53
2019-03-24T09:17:35.604Z,9.73
2019-03-24T09:20:07.368Z,10.03
2019-03-24T09:22:38.325Z,8.73
2019-03-24T09:25:12.048Z,10.67
2019-03-24T09:27:43.028Z,8.83
2019-03-24T09:30:33.479Z,9.90
2019-03-24T09:33:04.546Z,9.37
2019-03-24T09:35:35.503Z,9.30
2019-03-24T09:38:06.707Z,9.40
2019-03-24T09:40:37.617Z,7.97
2019-03-24T09:43:08.831Z,9.07
2019-03-24T09:45:39.709Z,9.10
2019-03-24T09:48:11.725Z,9.97
2019-03-24T09:50:44.841Z,9.07
2019-03-24T09:53:15.832Z,8.63
2019-03-24T09:55:46.618Z,10.97
2019-03-24T09:58:17.436Z,9.97
2019-03-24T10:00:48.213Z,9.83
2019-03-24T10:03:19.063Z,9.87
2019-03-24T10:05:51.008Z,10.03
2019-03-24T10:08:29.822Z,10.00
2019-03-24T10:11:00.586Z,9.23
2019-03-24T10:13:31.565Z,9.33
2019-03-24T10:16:02.387Z,9.60
2019-03-24T10:18:34.613Z,9.20
2019-03-24T10:21:07.156Z,9.53
2019-03-24T10:23:37.977Z,9.30
2019-03-24T10:26:08.705Z,9.33
2019-03-24T10:28:40.158Z,10.47
2019-03-24T10:31:11.068Z,9.53
2019-03-24T10:33:41.951Z,10.40
2019-03-24T10:36:12.790Z,9.53
2019-03-24T10:38:43.760Z,10.20
2019-03-24T10:41:14.536Z,10.87
2019-03-24T10:43:45.315Z,9.90
2019-03-24T10:46:16.154Z,10.20
2019-03-24T10:48:48.068Z,10.73
2019-03-24T10:51:18.905Z,9.93
2019-03-24T10:53:49.877Z,9.83
2019-03-24T10:56:20.646Z,11.10
2019-03-24T10:58:51.507Z,10.80
2019-03-24T11:01:22.396Z,11.10
2019-03-24T11:03:53.257Z,10.80
2019-03-24T11:06:24.447Z,11.30
2019-03-24T11:08:55.290Z,11.80
2019-03-24T11:11:26.438Z,11.93
2019-03-24T11:13:57.273Z,10.63
2019-03-24T11:16:28.111Z,11.13
2019-03-24T11:18:59.200Z,12.03
2019-03-24T11:21:30.146Z,13.17
2019-03-24T11:24:01.106Z,11.57
2019-03-24T11:26:31.984Z,11.83
2019-03-24T11:29:04.114Z,12.50
2019-03-24T11:31:34.847Z,12.80
2019-03-24T11:34:05.723Z,12.97
2019-03-24T11:36:36.703Z,12.00
2019-03-24T11:39:09.080Z,12.17
2019-03-24T11:41:39.832Z,12.87
2019-03-24T11:44:10.797Z,12.33
2019-03-24T11:46:41.929Z,12.33
2019-03-24T11:49:17.148Z,12.43
2019-03-24T11:51:47.900Z,11.50
2019-03-24T11:54:18.813Z,11.90
2019-03-24T11:56:49.547Z,11.73
2019-03-24T11:59:20.432Z,11.87
2019-03-24T12:01:51.212Z,12.10
2019-03-24T12:04:22.060Z,10.03
2019-03-24T12:06:52.962Z,10.37
2019-03-24T12:09:25.471Z,11.67
2019-03-24T12:11:56.362Z,12.20
2019-03-24T12:14:32.497Z,10.87
2019-03-24T12:17:04.951Z,11.20
2019-03-24T12:19:39.153Z,12.10
2019-03-24T12:22:09.981Z,11.80
2019-03-24T12:24:42.031Z,12.17
2019-03-24T12:27:18.821Z,12.73
2019-03-24T12:29:50.165Z,12.97
2019-03-24T12:32:25.251Z,13.50
2019-03-24T12:34:56.203Z,13.50
2019-03-24T12:37:30.843Z,12.57
2019-03-24T12:40:35.743Z,12.73
2019-03-24T12:43:19.085Z,13.43
2019-03-24T12:45:46.384Z,12.00
2019-03-24T12:48:21.027Z,12.07
2019-03-24T12:51:00.617Z,13.53
2019-03-24T12:53:31.343Z,12.23
2019-03-24T12:56:18.478Z,13.47
2019-03-24T12:59:01.918Z,12.00
2019-03-24T13:01:36.772Z,12.87
2019-03-24T13:04:11.458Z,13.00
2019-03-24T13:06:44.039Z,11.63
2019-03-24T13:09:15.244Z,12.60
2019-03-24T13:11:46.619Z,12.10
2019-03-24T13:14:18.775Z,10.27
2019-03-24T13:16:50.704Z,9.93
2019-03-24T13:19:22.934Z,9.90
2019-03-24T13:22:20.320Z,10.20
2019-03-24T13:25:00.343Z,10.93
2019-03-24T13:28:00.700Z,10.27
2019-03-24T13:30:41.483Z,10.47
2019-03-24T13:33:12.812Z,9.87
2019-03-24T13:35:43.926Z,10.27
2019-03-24T13:38:15.174Z,10.03
2019-03-24T13:40:45.924Z,10.67
2019-03-24T13:43:16.872Z,9.17
2019-03-24T13:45:47.632Z,9.77
2019-03-24T13:48:18.465Z,8.27
2019-03-24T13:50:49.211Z,8.57
2019-03-24T13:53:21.731Z,8.03
2019-03-24T13:55:52.472Z,9.20
2019-03-24T13:58:23.379Z,8.87
2019-03-24T14:00:54.128Z,8.10
2019-03-24T14:03:24.902Z,7.50
2019-03-24T14:05:55.694Z,8.10
2019-03-24T14:08:26.650Z,8.47
2019-03-24T14:10:57.545Z,7.87
2019-03-24T14:13:28.556Z,8.10
2019-03-24T14:15:59.290Z,7.63
2019-03-24T14:18:30.232Z,7.67
2019-03-24T14:21:01.002Z,8.23
2019-03-24T14:23:31.898Z,8.17
2019-03-24T14:26:02.865Z,7.60
2019-03-24T14:28:33.929Z,7.03
2019-03-24T14:31:04.982Z,8.53
2019-03-24T14:33:35.782Z,10.30
2019-03-24T14:36:06.606Z,9.73
2019-03-24T14:38:37.496Z,8.57
2019-03-24T14:41:08.576Z,8.57
2019-03-24T14:43:39.463Z,8.40
2019-03-24T14:46:10.250Z,8.27
2019-03-24T14:48:41.103Z,7.83
2019-03-24T14:51:12.024Z,7.43
2019-03-24T14:53:43.142Z,7.50
2019-03-24T14:56:13.902Z,7.80
2019-03-24T14:58:45.023Z,7.43
2019-03-24T15:01:17.416Z,7.67
2019-03-24T15:03:48.225Z,6.67
2019-03-24T15:06:20.625Z,7.27
2019-03-24T15:08:51.694Z,5.67
2019-03-24T15:11:23.301Z,5.93
2019-03-24T15:13:54.441Z,6.30
2019-03-24T15:16:28.526Z,6.77
2019-03-24T15:19:00.173Z,6.43
2019-03-24T15:21:31.433Z,7.93
2019-03-24T15:24:02.507Z,6.07
2019-03-24T15:26:37.300Z,6.57
2019-03-24T15:29:09.268Z,6.73
2019-03-24T15:31:40.392Z,5.93
2019-03-24T15:34:11.266Z,6.23
2019-03-24T15:36:42.363Z,7.37
2019-03-24T15:39:13.497Z,7.13
2019-03-24T15:41:44.322Z,7.50
2019-03-24T15:44:15.922Z,6.37
2019-03-24T15:46:49.262Z,7.37
2019-03-24T15:49:20.278Z,6.90
2019-03-24T15:51:51.034Z,7.83
2019-03-24T15:54:21.865Z,6.80
2019-03-24T15:56:52.687Z,7.00
2019-03-24T15:59:23.936Z,6.67
2019-03-24T16:01:55.001Z,6.13
2019-03-24T16:04:26.190Z,7.23
2019-03-24T16:06:58.142Z,6.83
2019-03-24T16:09:30.688Z,6.80
2019-03-24T16:12:01.502Z,6.67
2019-03-24T16:14:34.950Z,6.63
2019-03-24T16:17:06.420Z,6.80
2019-03-24T16:19:39.674Z,7.30
2019-03-24T16:22:11.503Z,7.13
2019-03-24T16:24:42.721Z,7.10
2019-03-24T16:27:13.500Z,6.77
2019-03-24T16:29:44.501Z,7.90
2019-03-24T16:32:15.543Z,7.17
2019-03-24T16:34:46.431Z,8.13
2019-03-24T16:37:17.339Z,8.50
2019-03-24T16:39:48.248Z,7.70
2019-03-24T16:42:19.031Z,7.30
2019-03-24T16:44:49.905Z,8.43
2019-03-24T16:47:20.693Z,8.37
2019-03-24T16:49:51.637Z,8.47
2019-03-24T16:52:23.700Z,8.10
2019-03-24T16:55:06.243Z,9.23
2019-03-24T16:57:36.981Z,8.37
2019-03-24T17:00:08.343Z,8.80
2019-03-24T17:02:39.225Z,8.20
2019-03-24T17:05:10.239Z,9.40
2019-03-24T17:07:41.024Z,9.77
2019-03-24T17:10:12.436Z,8.70
2019-03-24T17:12:43.240Z,7.97
2019-03-24T17:15:14.451Z,8.37
2019-03-24T17:17:45.393Z,8.03
2019-03-24T17:20:16.478Z,9.30
2019-03-24T17:22:47.490Z,9.07
2019-03-24T17:25:18.324Z,8.77
2019-03-24T17:27:49.204Z,8.90
2019-03-24T17:30:20.493Z,9.60
2019-03-24T17:32:51.586Z,9.50
2019-03-24T17:35:22.359Z,8.93
2019-03-24T17:37:53.126Z,10.43
2019-03-24T17:40:23.991Z,9.87
2019-03-24T17:42:54.843Z,10.03
2019-03-24T17:45:25.678Z,9.53
2019-03-24T17:47:56.460Z,9.37
2019-03-24T17:50:27.382Z,10.37
2019-03-24T17:52:58.283Z,10.60
2019-03-24T17:55:31.048Z,10.53
2019-03-24T17:58:01.669Z,11.03
2019-03-24T18:00:45.013Z,11.13
2019-03-24T18:03:15.776Z,11.60
2019-03-24T18:05:46.828Z,11.67
2019-03-24T18:08:17.560Z,11.93
2019-03-24T18:10:48.368Z,12.10
2019-03-24T18:13:19.136Z,10.30
2019-03-24T18:15:50.193Z,11.90
2019-03-24T18:18:20.970Z,12.00
2019-03-24T18:20:52.041Z,12.53
2019-03-24T18:23:22.781Z,12.50
2019-03-24T18:25:53.592Z,11.67
2019-03-24T18:28:24.345Z,12.30
2019-03-24T18:30:55.268Z,13.70
2019-03-24T18:33:26.602Z,13.27
2019-03-24T18:35:58.474Z,13.43
2019-03-24T18:38:29.260Z,13.20
2019-03-24T18:41:00.184Z,13.40
2019-03-24T18:43:30.943Z,14.90
2019-03-24T18:46:01.999Z,14.80
2019-03-24T18:48:32.752Z,14.30
2019-03-24T18:51:03.680Z,13.77
2019-03-24T18:53:34.761Z,14.23
2019-03-24T18:56:05.571Z,15.50
2019-03-24T18:58:36.366Z,17.00
2019-03-24T19:01:07.257Z,15.17
2019-03-24T19:03:38.032Z,15.13
2019-03-24T19:06:08.870Z,14.90
2019-03-24T19:08:39.730Z,14.97
2019-03-24T19:11:10.617Z,16.00
2019-03-24T19:13:41.495Z,14.83
2019-03-24T19:16:12.395Z,15.30
2019-03-24T19:18:43.235Z,15.40
2019-03-24T19:21:14.093Z,16.13
2019-03-24T19:23:44.889Z,15.03
2019-03-24T19:26:15.671Z,14.47
2019-03-24T19:28:46.448Z,17.97
2019-03-24T19:31:17.380Z,15.87
2019-03-24T19:33:48.314Z,15.33
2019-03-24T19:36:19.168Z,17.17
2019-03-24T19:38:51.009Z,18.07
2019-03-24T19:41:21.887Z,16.60
2019-03-24T19:43:52.661Z,16.37
2019-03-24T19:46:23.593Z,17.67
2019-03-24T19:48:54.852Z,16.63
2019-03-24T19:51:25.762Z,17.57
2019-03-24T19:53:56.553Z,16.33
2019-03-24T19:56:27.514Z,17.53
2019-03-24T19:58:58.284Z,16.37
2019-03-24T20:01:29.274Z,16.70
2019-03-24T20:04:00.053Z,18.93
2019-03-24T20:06:30.889Z,18.07
2019-03-24T20:09:02.132Z,17.63
2019-03-24T20:11:34.790Z,17.67
2019-03-24T20:14:05.671Z,18.53
2019-03-24T20:16:36.642Z,17.23
2019-03-24T20:19:07.474Z,16.83
2019-03-24T20:21:39.569Z,17.27
2019-03-24T20:24:10.394Z,17.13
2019-03-24T20:26:41.308Z,17.33
2019-03-24T20:29:12.109Z,16.73
2019-03-24T20:31:43.057Z,16.40
2019-03-24T20:34:14.109Z,16.00
2019-03-24T20:36:44.957Z,17.10
2019-03-24T20:39:15.785Z,16.07
2019-03-24T20:41:46.648Z,16.17
2019-03-24T20:44:17.399Z,16.03
2019-03-24T20:46:48.474Z,16.30
2019-03-24T20:49:19.368Z,15.47
2019-03-24T20:51:50.220Z,17.57
2019-03-24T20:54:21.174Z,16.13
2019-03-24T20:56:52.047Z,15.93
2019-03-24T20:59:22.819Z,14.87
2019-03-24T21:01:54.125Z,15.63
2019-03-24T21:04:24.972Z,15.97
2019-03-24T21:06:55.805Z,14.93
2019-03-24T21:09:26.680Z,15.00
2019-03-24T21:11:58.489Z,14.53
2019-03-24T21:14:30.179Z,15.63
2019-03-24T21:17:01.059Z,14.10
2019-03-24T21:19:31.883Z,13.23
2019-03-24T21:22:02.803Z,14.33
2019-03-24T21:24:33.668Z,16.30
2019-03-24T21:27:07.028Z,14.43
2019-03-24T21:29:37.780Z,15.00
2019-03-24T21:32:08.818Z,15.37
2019-03-24T21:34:40.036Z,15.23
2019-03-24T21:37:10.911Z,15.23
2019-03-24T21:39:41.701Z,15.27
2019-03-24T21:42:12.625Z,15.13
2019-03-24T21:44:44.816Z,16.90
2019-03-24T21:47:16.002Z,16.40
2019-03-24T21:49:46.802Z,14.93
2019-03-24T21:52:17.604Z,15.53
2019-03-24T21:54:48.412Z,16.07
2019-03-24T21:57:19.287Z,16.40
2019-03-24T21:59:50.056Z,16.53
2019-03-24T22:02:21.023Z,18.33
2019-03-24T22:04:51.803Z,18.07
2019-03-24T22:07:22.672Z,17.67
2019-03-24T22:09:53.490Z,18.83
2019-03-24T22:12:24.324Z,16.80
2019-03-24T22:14:57.232Z,18.67
2019-03-24T22:17:28.155Z,17.83
2019-03-24T22:19:58.994Z,17.27
2019-03-24T22:22:29.851Z,18.03
2019-03-24T22:25:00.701Z,18.70
2019-03-24T22:27:31.554Z,19.47
2019-03-24T22:30:02.370Z,18.30
2019-03-24T22:32:34.312Z,20.27
2019-03-24T22:35:05.192Z,19.27
2019-03-24T22:37:36.031Z,19.33
2019-03-24T22:40:08.187Z,18.97
2019-03-24T22:42:38.973Z,19.00
2019-03-24T22:45:10.845Z,21.47
2019-03-24T22:47:41.934Z,21.43
2019-03-24T22:50:12.882Z,20.17
2019-03-24T22:52:43.715Z,20.63
2019-03-24T22:55:14.774Z,20.63
2019-03-24T22:57:45.783Z,18.60
2019-03-24T23:00:21.212Z,19.73
2019-03-24T23:02:53.908Z,21.63
2019-03-24T23:05:24.746Z,21.27
2019-03-24T23:07:55.620Z,20.73
2019-03-24T23:10:26.483Z,22.10
2019-03-24T23:12:57.366Z,22.67
2019-03-24T23:15:28.279Z,23.23
2019-03-24T23:17:59.278Z,22.30
2019-03-24T23:20:30.061Z,21.70
2019-03-24T23:23:00.922Z,20.90
2019-03-24T23:25:31.870Z,22.10
2019-03-24T23:28:02.803Z,21.60
2019-03-24T23:30:33.585Z,22.83
2019-03-24T23:33:04.773Z,20.83
2019-03-24T23:35:36.325Z,20.93
2019-03-24T23:38:07.259Z,21.57
2019-03-24T23:40:38.128Z,21.67
2019-03-24T23:43:08.969Z,22.10
2019-03-24T23:45:39.837Z,21.53
2019-03-24T23:48:11.894Z,22.23
2019-03-24T23:50:42.664Z,19.43
2019-03-24T23:53:13.505Z,21.97
2019-03-24T23:55:44.289Z,21.37
2019-03-24T23:58:15.319Z,21.13
